Wednesday, October 22, 2014, 6:21 PM EDT

KDYL, Doylestown Airport

Location: Doylestown, PA, United States Lat: 40.333
Local Time: 6:21 PM EDT (22:21 GMT) Lon: -75.117
Time Zone: US/Eastern Elev: 393 ft

Show me the last for .
Show Decoded

2014-10-22 17:54 METAR KDYL 222154Z AUTO 36011G21KT 10SM -RA OVC022 11/10 A2985 RMK AO2 SLP110
                 P0003 T01110100 =
2014-10-22 17:13 METAR KDYL 222113Z AUTO 36012KT 9SM -RA FEW019 BKN025 OVC032 11/10 A2985 RMK AO2
                 P0002 T01110100 $ =
2014-10-22 16:54 METAR KDYL 222054Z AUTO 01014G26KT 10SM -RA SCT027 OVC034 12/10 A2985 RMK AO2 PK
                 WND 01026/2045 SLP109 P0000 60002 T01170100 56008 =
2014-10-22 16:01 METAR KDYL 222001Z AUTO 01013G20KT 10SM -RA BKN023 BKN029 OVC035 12/11 A2985 RMK
                 AO2 P0000 T01170106 =
2014-10-22 15:23 METAR KDYL 221923Z AUTO 36012G20KT 10SM -RA OVC030 11/11 A2986 RMK AO2 P0001
                 T01110106 $ =
2014-10-22 14:54 METAR KDYL 221854Z AUTO 36012G19KT 10SM -RA OVC021 12/10 A2986 RMK AO2 RAB11
                 SLP113 P0001 T01170100 =
2014-10-22 13:54 METAR KDYL 221754Z AUTO 01014G20KT 10SM OVC016 12/10 A2987 RMK AO2 RAB02E11
                 SLP117 P0000 60011 T01170100 10117 20106 58015 =
2014-10-22 12:54 METAR KDYL 221654Z AUTO 01009G17KT 10SM OVC016 12/11 A2989 RMK AO2 RAE1555
                 SLP123 P0000 T01170106 =
2014-10-22 11:54 METAR KDYL 221554Z AUTO 01009G18KT 10SM -RA FEW010 OVC016 11/11 A2991 RMK AO2
                 SLP130 P0003 T01110106 $ =
2014-10-22 10:54 METAR KDYL 221454Z AUTO 02008KT 10SM -RA OVC010 11/11 A2992 RMK AO2 CIG 008V014
                 SLP133 P0001 60008 T01110106 53005 =
2014-10-22 10:01 METAR KDYL 221401Z AUTO 01007KT 10SM -RA OVC011 11/11 A2991 RMK AO2 P0000
                 T01110111 =
2014-10-22 09:54 METAR KDYL 221354Z AUTO 01010G18KT 10SM -RA BKN009 OVC013 11/11 A2991 RMK AO2
                 CIG 006V011 SLP128 P0002 T01110111 =
2014-10-22 08:54 METAR KDYL 221254Z AUTO 02006KT 10SM -RA OVC009 12/12 A2991 RMK AO2 CIG 007V012
                 SLP129 P0005 T01170117 =
2014-10-22 07:54 METAR KDYL 221154Z AUTO 02006KT 10SM -RA OVC014 12/11 A2990 RMK AO2
                 RAB1058E28B32 SLP127 P0001 60001 70016 T01170111 10117 20106 53012 =
2014-10-22 07:40 METAR KDYL 221140Z AUTO 03005KT 10SM -RA OVC014 12/11 A2990 RMK AO2
                 RAB1058E28B32 P0000 T01170111 =
2014-10-22 07:28 METAR KDYL 221128Z AUTO 03007KT 10SM OVC015 12/11 A2989 RMK AO2 RAB1058E28 P0000
                 T01170111 =
2014-10-22 06:54 METAR KDYL 221054Z AUTO 02008KT 10SM OVC011 12/11 A2987 RMK AO2 RAB21E34 SLP116
                 P0000 T01170111 =
2014-10-22 06:51 METAR KDYL 221051Z AUTO 02008KT 10SM OVC011 12/11 A2988 RMK AO2 RAB21E34 P0000 =
2014-10-22 06:17 METAR KDYL 221017Z AUTO 01009KT 10SM OVC009 12/11 A2987 RMK AO2 T01170111 =
2014-10-22 05:54 METAR KDYL 220954Z AUTO 01009KT 10SM OVC010 12/11 A2987 RMK AO2 SLP114 T01170111
                 =
2014-10-22 04:54 METAR KDYL 220854Z AUTO 02005KT 10SM OVC011 11/11 A2987 RMK AO2 SLP113 T01110106
                 55003 =
2014-10-22 04:04 METAR KDYL 220804Z AUTO 02007KT 10SM OVC013 11/11 A2985 RMK AO2 T01060106 =
2014-10-22 03:54 METAR KDYL 220754Z AUTO 01008KT 10SM BKN015 OVC100 11/11 A2986 RMK AO2 SLP109
                 T01060106 =
2014-10-22 03:46 METAR KDYL 220746Z AUTO 03006KT 10SM BKN015 BKN100 11/10 A2986 RMK AO2 T01060100
                 =
2014-10-22 03:02 METAR KDYL 220702Z AUTO 02006KT 10SM BKN014 11/10 A2986 RMK AO2 T01060100 =
2014-10-22 02:54 METAR KDYL 220654Z AUTO 03005KT 10SM SCT013 11/10 A2986 RMK AO2 SLP111 T01060100
                 =
2014-10-22 01:54 METAR KDYL 220554Z AUTO 02006KT 10SM OVC085 11/11 A2988 RMK AO2 SLP117 60015
                 T01060106 10133 20106 57007 =
2014-10-22 00:54 METAR KDYL 220454Z AUTO 02006KT 10SM OVC080 11/11 A2989 RMK AO2 RAB11E40 SLP119
                 P0001 T01110106 401940089 =
2014-10-22 00:14 METAR KDYL 220414Z AUTO 02004KT 10SM -RA OVC070 11/11 A2989 RMK AO2 RAB11 P0000
                 T01110111 =
2014-10-21 23:54 METAR KDYL 220354Z AUTO 05003KT 10SM VCTS OVC070 11/11 A2989 RMK AO2 LTG DSNT SW
                 RAE09 SLP121 P0000 T01110111 =
2014-10-21 22:54 METAR KDYL 220254Z AUTO 04006KT 10SM -RA FEW039 SCT050 OVC070 11/11 A2990 RMK
                 AO2 RAB26 SLP125 P0014 60014 T01060106 51014 =
2014-10-21 21:54 METAR KDYL 220154Z AUTO 00000KT 10SM SCT041 BKN080 13/11 A2990 RMK AO2 SLP124
                 T01280106 =
2014-10-21 20:54 METAR KDYL 220054Z AUTO 01005KT 10SM SCT026 BKN033 13/11 A2987 RMK AO2 SLP117
                 T01330106 =
2014-10-21 20:46 METAR KDYL 220046Z AUTO 01006KT 10SM BKN026 13/11 A2987 RMK AO2 T01330106 =
2014-10-21 19:54 METAR KDYL 212354Z AUTO 02003KT 10SM BKN050 13/10 A2986 RMK AO2 SLP112 T01330100
                 10194 20133 53017 =
2014-10-21 18:54 METAR KDYL 212254Z AUTO 04003KT 10SM BKN055 14/09 A2984 RMK AO2 SLP106 T01440094
                 =

Support USWX by starting your Amazon purchase here.